sensor_id;sensor_type;location;lat;lon;timestamp;temperature;humidity
3037;DHT22;1528;52.550;13.408;2022-12-26T00:01:51;11.30;50.30
3037;DHT22;1528;52.550;13.408;2022-12-26T00:04:38;11.40;49.50
3037;DHT22;1528;52.550;13.408;2022-12-26T00:07:23;11.40;49.70
3037;DHT22;1528;52.550;13.408;2022-12-26T00:10:09;11.40;49.00
3037;DHT22;1528;52.550;13.408;2022-12-26T00:12:54;11.40;49.00
3037;DHT22;1528;52.550;13.408;2022-12-26T00:15:40;11.40;50.10
3037;DHT22;1528;52.550;13.408;2022-12-26T00:18:26;11.50;49.80
3037;DHT22;1528;52.550;13.408;2022-12-26T00:21:14;11.50;51.10
3037;DHT22;1528;52.550;13.408;2022-12-26T00:24:00;11.50;50.70
3037;DHT22;1528;52.550;13.408;2022-12-26T00:26:46;11.50;51.70
3037;DHT22;1528;52.550;13.408;2022-12-26T00:29:32;11.50;49.80
3037;DHT22;1528;52.550;13.408;2022-12-26T00:32:17;11.40;50.40
3037;DHT22;1528;52.550;13.408;2022-12-26T00:35:03;11.50;52.10
3037;DHT22;1528;52.550;13.408;2022-12-26T00:37:50;11.50;49.80
3037;DHT22;1528;52.550;13.408;2022-12-26T00:40:35;11.50;50.10
3037;DHT22;1528;52.550;13.408;2022-12-26T00:43:25;11.50;50.10
3037;DHT22;1528;52.550;13.408;2022-12-26T00:46:11;11.40;51.00
3037;DHT22;1528;52.550;13.408;2022-12-26T00:48:57;11.60;50.10
3037;DHT22;1528;52.550;13.408;2022-12-26T00:51:42;11.50;50.00
3037;DHT22;1528;52.550;13.408;2022-12-26T00:54:30;11.50;51.00
3037;DHT22;1528;52.550;13.408;2022-12-26T00:57:16;11.50;50.60
3037;DHT22;1528;52.550;13.408;2022-12-26T01:00:02;11.60;50.40
3037;DHT22;1528;52.550;13.408;2022-12-26T01:02:47;11.50;49.80
3037;DHT22;1528;52.550;13.408;2022-12-26T01:05:33;11.60;49.30
3037;DHT22;1528;52.550;13.408;2022-12-26T01:08:19;11.70;49.00
3037;DHT22;1528;52.550;13.408;2022-12-26T01:11:09;11.50;49.20
3037;DHT22;1528;52.550;13.408;2022-12-26T01:13:54;11.50;49.70
3037;DHT22;1528;52.550;13.408;2022-12-26T01:16:41;11.50;49.80
3037;DHT22;1528;52.550;13.408;2022-12-26T01:19:27;11.60;49.80
3037;DHT22;1528;52.550;13.408;2022-12-26T01:22:13;11.50;49.80
3037;DHT22;1528;52.550;13.408;2022-12-26T01:24:58;11.60;49.50
3037;DHT22;1528;52.550;13.408;2022-12-26T01:27:45;11.80;49.10
3037;DHT22;1528;52.550;13.408;2022-12-26T01:30:31;11.70;49.20
3037;DHT22;1528;52.550;13.408;2022-12-26T01:33:17;11.70;49.40
3037;DHT22;1528;52.550;13.408;2022-12-26T01:36:03;11.80;48.90
3037;DHT22;1528;52.550;13.408;2022-12-26T01:38:49;11.80;48.60
3037;DHT22;1528;52.550;13.408;2022-12-26T01:41:35;11.80;48.50
3037;DHT22;1528;52.550;13.408;2022-12-26T01:44:59;11.70;48.90
3037;DHT22;1528;52.550;13.408;2022-12-26T01:47:48;11.60;49.10
3037;DHT22;1528;52.550;13.408;2022-12-26T01:50:42;11.80;48.90
3037;DHT22;1528;52.550;13.408;2022-12-26T01:53:30;11.90;48.50
3037;DHT22;1528;52.550;13.408;2022-12-26T01:56:20;12.00;47.70
3037;DHT22;1528;52.550;13.408;2022-12-26T01:59:10;11.80;47.70
3037;DHT22;1528;52.550;13.408;2022-12-26T02:01:58;11.80;47.90
3037;DHT22;1528;52.550;13.408;2022-12-26T02:04:47;11.60;48.20
3037;DHT22;1528;52.550;13.408;2022-12-26T02:07:50;11.50;48.70
3037;DHT22;1528;52.550;13.408;2022-12-26T02:10:40;11.60;48.20
3037;DHT22;1528;52.550;13.408;2022-12-26T02:13:28;11.60;48.50
3037;DHT22;1528;52.550;13.408;2022-12-26T02:16:15;11.60;48.20
3037;DHT22;1528;52.550;13.408;2022-12-26T02:19:04;11.70;48.20
3037;DHT22;1528;52.550;13.408;2022-12-26T02:22:17;11.70;48.00
3037;DHT22;1528;52.550;13.408;2022-12-26T02:25:26;11.70;47.80
3037;DHT22;1528;52.550;13.408;2022-12-26T02:28:45;11.80;47.20
3037;DHT22;1528;52.550;13.408;2022-12-26T02:31:39;11.90;47.20
3037;DHT22;1528;52.550;13.408;2022-12-26T02:34:33;11.90;47.10
3037;DHT22;1528;52.550;13.408;2022-12-26T02:37:30;11.90;47.30
3037;DHT22;1528;52.550;13.408;2022-12-26T02:40:35;11.80;47.60
3037;DHT22;1528;52.550;13.408;2022-12-26T02:43:33;11.90;47.30
3037;DHT22;1528;52.550;13.408;2022-12-26T02:46:24;11.90;47.30
3037;DHT22;1528;52.550;13.408;2022-12-26T02:49:48;12.10;46.90
3037;DHT22;1528;52.550;13.408;2022-12-26T02:53:05;12.00;47.10
3037;DHT22;1528;52.550;13.408;2022-12-26T02:56:19;11.90;48.70
3037;DHT22;1528;52.550;13.408;2022-12-26T02:59:30;12.00;47.70
3037;DHT22;1528;52.550;13.408;2022-12-26T03:02:37;12.10;47.30
3037;DHT22;1528;52.550;13.408;2022-12-26T03:05:46;12.00;47.80
3037;DHT22;1528;52.550;13.408;2022-12-26T03:08:54;12.10;47.40
3037;DHT22;1528;52.550;13.408;2022-12-26T03:12:02;11.90;48.10
3037;DHT22;1528;52.550;13.408;2022-12-26T03:15:11;11.90;47.60
3037;DHT22;1528;52.550;13.408;2022-12-26T03:18:01;12.00;47.60
3037;DHT22;1528;52.550;13.408;2022-12-26T03:20:48;12.00;47.30
3037;DHT22;1528;52.550;13.408;2022-12-26T03:23:35;12.00;47.50
3037;DHT22;1528;52.550;13.408;2022-12-26T03:26:27;12.00;47.60
3037;DHT22;1528;52.550;13.408;2022-12-26T03:29:24;12.00;47.70
3037;DHT22;1528;52.550;13.408;2022-12-26T03:32:41;12.00;47.50
3037;DHT22;1528;52.550;13.408;2022-12-26T03:35:30;12.00;47.50
3037;DHT22;1528;52.550;13.408;2022-12-26T03:38:20;12.10;47.30
3037;DHT22;1528;52.550;13.408;2022-12-26T03:41:15;12.20;46.70
3037;DHT22;1528;52.550;13.408;2022-12-26T03:44:38;12.10;47.00
3037;DHT22;1528;52.550;13.408;2022-12-26T03:47:56;12.10;46.90
3037;DHT22;1528;52.550;13.408;2022-12-26T03:51:09;12.00;47.30
3037;DHT22;1528;52.550;13.408;2022-12-26T03:54:20;12.20;46.80
3037;DHT22;1528;52.550;13.408;2022-12-26T03:57:29;12.10;47.10
3037;DHT22;1528;52.550;13.408;2022-12-26T04:00:34;12.10;46.80
3037;DHT22;1528;52.550;13.408;2022-12-26T04:03:39;12.10;47.00
3037;DHT22;1528;52.550;13.408;2022-12-26T04:06:49;12.20;46.70
3037;DHT22;1528;52.550;13.408;2022-12-26T04:09:58;12.10;47.00
3037;DHT22;1528;52.550;13.408;2022-12-26T04:13:06;12.20;47.80
3037;DHT22;1528;52.550;13.408;2022-12-26T04:16:16;12.20;47.00
3037;DHT22;1528;52.550;13.408;2022-12-26T04:19:36;12.20;46.90
3037;DHT22;1528;52.550;13.408;2022-12-26T04:22:33;12.30;46.30
3037;DHT22;1528;52.550;13.408;2022-12-26T04:25:47;12.30;46.10
3037;DHT22;1528;52.550;13.408;2022-12-26T04:28:51;12.30;46.20
3037;DHT22;1528;52.550;13.408;2022-12-26T04:32:02;12.30;46.60
3037;DHT22;1528;52.550;13.408;2022-12-26T04:35:11;12.40;46.10
3037;DHT22;1528;52.550;13.408;2022-12-26T04:38:20;12.40;45.80
3037;DHT22;1528;52.550;13.408;2022-12-26T04:41:28;12.40;45.90
3037;DHT22;1528;52.550;13.408;2022-12-26T04:44:33;12.40;46.00
3037;DHT22;1528;52.550;13.408;2022-12-26T04:47:20;12.50;45.80
3037;DHT22;1528;52.550;13.408;2022-12-26T04:50:06;12.30;46.20
3037;DHT22;1528;52.550;13.408;2022-12-26T04:52:57;12.50;45.90
3037;DHT22;1528;52.550;13.408;2022-12-26T04:55:43;12.60;45.40
3037;DHT22;1528;52.550;13.408;2022-12-26T04:58:30;12.40;45.80
3037;DHT22;1528;52.550;13.408;2022-12-26T05:01:15;12.50;45.70
3037;DHT22;1528;52.550;13.408;2022-12-26T05:04:19;12.40;45.80
3037;DHT22;1528;52.550;13.408;2022-12-26T05:07:24;12.40;46.20
3037;DHT22;1528;52.550;13.408;2022-12-26T05:10:29;12.60;45.30
3037;DHT22;1528;52.550;13.408;2022-12-26T05:13:14;12.30;45.70
3037;DHT22;1528;52.550;13.408;2022-12-26T05:16:01;12.30;46.40
3037;DHT22;1528;52.550;13.408;2022-12-26T05:19:01;12.30;46.30
3037;DHT22;1528;52.550;13.408;2022-12-26T05:22:04;12.40;45.80
3037;DHT22;1528;52.550;13.408;2022-12-26T05:25:12;12.60;45.20
3037;DHT22;1528;52.550;13.408;2022-12-26T05:28:19;12.50;45.20
3037;DHT22;1528;52.550;13.408;2022-12-26T05:31:24;12.60;44.80
3037;DHT22;1528;52.550;13.408;2022-12-26T05:34:09;12.60;44.80
3037;DHT22;1528;52.550;13.408;2022-12-26T05:36:57;12.50;45.10
3037;DHT22;1528;52.550;13.408;2022-12-26T05:39:43;12.50;45.10
3037;DHT22;1528;52.550;13.408;2022-12-26T05:42:28;12.60;44.70
3037;DHT22;1528;52.550;13.408;2022-12-26T05:45:14;12.50;44.70
3037;DHT22;1528;52.550;13.408;2022-12-26T05:48:01;12.50;44.70
3037;DHT22;1528;52.550;13.408;2022-12-26T05:50:47;12.40;45.00
3037;DHT22;1528;52.550;13.408;2022-12-26T05:53:32;12.30;45.00
3037;DHT22;1528;52.550;13.408;2022-12-26T05:56:19;12.30;45.30
3037;DHT22;1528;52.550;13.408;2022-12-26T05:59:05;12.40;45.20
3037;DHT22;1528;52.550;13.408;2022-12-26T06:01:50;12.30;45.40
3037;DHT22;1528;52.550;13.408;2022-12-26T06:04:37;12.40;45.40
3037;DHT22;1528;52.550;13.408;2022-12-26T06:07:23;12.30;45.40
3037;DHT22;1528;52.550;13.408;2022-12-26T06:10:09;12.30;44.80
3037;DHT22;1528;52.550;13.408;2022-12-26T06:12:55;12.30;45.20
3037;DHT22;1528;52.550;13.408;2022-12-26T06:15:41;12.30;45.00
3037;DHT22;1528;52.550;13.408;2022-12-26T06:18:26;12.30;45.20
3037;DHT22;1528;52.550;13.408;2022-12-26T06:21:14;12.30;45.10
3037;DHT22;1528;52.550;13.408;2022-12-26T06:24:01;12.30;45.10
3037;DHT22;1528;52.550;13.408;2022-12-26T06:26:46;12.40;45.60
3037;DHT22;1528;52.550;13.408;2022-12-26T06:29:32;12.20;45.00
3037;DHT22;1528;52.550;13.408;2022-12-26T06:32:19;12.20;45.00
3037;DHT22;1528;52.550;13.408;2022-12-26T06:35:05;12.30;45.00
3037;DHT22;1528;52.550;13.408;2022-12-26T06:37:52;12.30;44.70
3037;DHT22;1528;52.550;13.408;2022-12-26T06:40:38;12.40;45.10
3037;DHT22;1528;52.550;13.408;2022-12-26T06:43:24;12.30;45.10
3037;DHT22;1528;52.550;13.408;2022-12-26T06:46:12;12.40;44.90
3037;DHT22;1528;52.550;13.408;2022-12-26T06:48:58;12.40;44.90
3037;DHT22;1528;52.550;13.408;2022-12-26T06:51:44;12.40;44.60
3037;DHT22;1528;52.550;13.408;2022-12-26T06:54:31;12.50;44.50
3037;DHT22;1528;52.550;13.408;2022-12-26T06:57:17;12.50;44.30
3037;DHT22;1528;52.550;13.408;2022-12-26T07:00:03;12.50;44.30
3037;DHT22;1528;52.550;13.408;2022-12-26T07:02:49;12.40;44.30
3037;DHT22;1528;52.550;13.408;2022-12-26T07:05:37;12.50;44.40
3037;DHT22;1528;52.550;13.408;2022-12-26T07:08:22;12.50;44.20
3037;DHT22;1528;52.550;13.408;2022-12-26T07:11:13;12.50;44.40
3037;DHT22;1528;52.550;13.408;2022-12-26T07:13:59;12.40;44.60
3037;DHT22;1528;52.550;13.408;2022-12-26T07:16:45;12.50;44.60
3037;DHT22;1528;52.550;13.408;2022-12-26T07:19:30;12.50;44.00
3037;DHT22;1528;52.550;13.408;2022-12-26T07:22:16;12.50;43.90
3037;DHT22;1528;52.550;13.408;2022-12-26T07:25:02;12.40;44.40
3037;DHT22;1528;52.550;13.408;2022-12-26T07:27:51;12.50;44.30
3037;DHT22;1528;52.550;13.408;2022-12-26T07:30:37;12.50;44.50
3037;DHT22;1528;52.550;13.408;2022-12-26T07:33:23;12.60;44.70
3037;DHT22;1528;52.550;13.408;2022-12-26T07:36:09;12.50;44.70
3037;DHT22;1528;52.550;13.408;2022-12-26T07:38:54;12.60;44.00
3037;DHT22;1528;52.550;13.408;2022-12-26T07:41:40;12.60;43.80
3037;DHT22;1528;52.550;13.408;2022-12-26T07:44:45;12.70;43.60
3037;DHT22;1528;52.550;13.408;2022-12-26T07:47:30;12.60;43.60
3037;DHT22;1528;52.550;13.408;2022-12-26T07:50:16;12.60;44.10
3037;DHT22;1528;52.550;13.408;2022-12-26T07:53:01;12.50;44.40
3037;DHT22;1528;52.550;13.408;2022-12-26T07:55:47;12.60;44.50
3037;DHT22;1528;52.550;13.408;2022-12-26T07:58:32;12.70;44.00
3037;DHT22;1528;52.550;13.408;2022-12-26T08:01:19;12.70;43.50
3037;DHT22;1528;52.550;13.408;2022-12-26T08:04:04;12.60;43.90
3037;DHT22;1528;52.550;13.408;2022-12-26T08:06:50;12.60;43.90
3037;DHT22;1528;52.550;13.408;2022-12-26T08:09:36;12.60;43.90
3037;DHT22;1528;52.550;13.408;2022-12-26T08:12:22;12.70;43.80
3037;DHT22;1528;52.550;13.408;2022-12-26T08:15:11;12.70;43.90
3037;DHT22;1528;52.550;13.408;2022-12-26T08:17:58;12.70;44.50
3037;DHT22;1528;52.550;13.408;2022-12-26T08:20:43;12.80;43.60
3037;DHT22;1528;52.550;13.408;2022-12-26T08:23:29;12.80;44.40
3037;DHT22;1528;52.550;13.408;2022-12-26T08:26:14;12.90;43.20
3037;DHT22;1528;52.550;13.408;2022-12-26T08:29:05;12.80;43.60
3037;DHT22;1528;52.550;13.408;2022-12-26T08:31:50;12.80;43.40
3037;DHT22;1528;52.550;13.408;2022-12-26T08:34:37;12.70;43.50
3037;DHT22;1528;52.550;13.408;2022-12-26T08:37:23;12.80;43.30
3037;DHT22;1528;52.550;13.408;2022-12-26T08:40:09;12.80;43.20
3037;DHT22;1528;52.550;13.408;2022-12-26T08:42:54;12.80;43.30
3037;DHT22;1528;52.550;13.408;2022-12-26T08:45:40;12.90;43.00
3037;DHT22;1528;52.550;13.408;2022-12-26T08:48:26;12.70;43.30
3037;DHT22;1528;52.550;13.408;2022-12-26T08:51:14;12.80;43.30
3037;DHT22;1528;52.550;13.408;2022-12-26T08:54:00;12.90;42.80
3037;DHT22;1528;52.550;13.408;2022-12-26T08:56:45;12.90;42.70
3037;DHT22;1528;52.550;13.408;2022-12-26T08:59:31;12.90;42.80
3037;DHT22;1528;52.550;13.408;2022-12-26T09:02:17;12.90;42.90
3037;DHT22;1528;52.550;13.408;2022-12-26T09:05:02;12.90;42.70
3037;DHT22;1528;52.550;13.408;2022-12-26T09:07:49;12.90;42.70
3037;DHT22;1528;52.550;13.408;2022-12-26T09:10:35;12.80;42.70
3037;DHT22;1528;52.550;13.408;2022-12-26T09:13:21;12.70;43.10
3037;DHT22;1528;52.550;13.408;2022-12-26T09:16:08;12.70;43.10
3037;DHT22;1528;52.550;13.408;2022-12-26T09:18:55;12.70;43.20
3037;DHT22;1528;52.550;13.408;2022-12-26T09:21:41;12.60;43.10
3037;DHT22;1528;52.550;13.408;2022-12-26T09:24:29;12.50;43.50
3037;DHT22;1528;52.550;13.408;2022-12-26T09:27:15;12.50;43.60
3037;DHT22;1528;52.550;13.408;2022-12-26T09:30:01;12.50;43.70
3037;DHT22;1528;52.550;13.408;2022-12-26T09:32:46;12.60;43.90
3037;DHT22;1528;52.550;13.408;2022-12-26T09:35:32;12.60;43.60
3037;DHT22;1528;52.550;13.408;2022-12-26T09:38:17;12.60;43.70
3037;DHT22;1528;52.550;13.408;2022-12-26T09:41:22;12.70;43.50
3037;DHT22;1528;52.550;13.408;2022-12-26T09:44:16;12.70;43.50
3037;DHT22;1528;52.550;13.408;2022-12-26T09:47:15;12.60;43.50
3037;DHT22;1528;52.550;13.408;2022-12-26T09:50:10;12.60;43.30
3037;DHT22;1528;52.550;13.408;2022-12-26T09:53:00;12.50;43.40
3037;DHT22;1528;52.550;13.408;2022-12-26T09:55:51;12.60;43.60
3037;DHT22;1528;52.550;13.408;2022-12-26T09:58:43;12.70;43.40
3037;DHT22;1528;52.550;13.408;2022-12-26T10:01:32;12.60;43.20
3037;DHT22;1528;52.550;13.408;2022-12-26T10:04:22;12.60;43.40
3037;DHT22;1528;52.550;13.408;2022-12-26T10:07:12;12.70;43.20
3037;DHT22;1528;52.550;13.408;2022-12-26T10:10:09;12.60;43.10
3037;DHT22;1528;52.550;13.408;2022-12-26T10:12:59;12.60;43.20
3037;DHT22;1528;52.550;13.408;2022-12-26T10:15:52;12.60;43.10
3037;DHT22;1528;52.550;13.408;2022-12-26T10:18:52;12.60;42.80
3037;DHT22;1528;52.550;13.408;2022-12-26T10:21:45;12.60;42.30
3037;DHT22;1528;52.550;13.408;2022-12-26T10:24:36;12.70;42.20
3037;DHT22;1528;52.550;13.408;2022-12-26T10:27:24;12.70;41.90
3037;DHT22;1528;52.550;13.408;2022-12-26T10:30:17;12.50;42.10
3037;DHT22;1528;52.550;13.408;2022-12-26T10:33:19;12.50;42.30
3037;DHT22;1528;52.550;13.408;2022-12-26T10:36:07;12.60;42.00
3037;DHT22;1528;52.550;13.408;2022-12-26T10:38:55;12.60;42.00
3037;DHT22;1528;52.550;13.408;2022-12-26T10:41:46;12.50;41.70
3037;DHT22;1528;52.550;13.408;2022-12-26T10:44:31;12.50;41.80
3037;DHT22;1528;52.550;13.408;2022-12-26T10:47:21;12.50;42.20
3037;DHT22;1528;52.550;13.408;2022-12-26T10:50:14;12.50;41.70
3037;DHT22;1528;52.550;13.408;2022-12-26T10:53:04;12.60;41.50
3037;DHT22;1528;52.550;13.408;2022-12-26T10:55:51;12.50;41.30
3037;DHT22;1528;52.550;13.408;2022-12-26T10:58:37;12.40;41.30
3037;DHT22;1528;52.550;13.408;2022-12-26T11:01:32;12.50;42.00
3037;DHT22;1528;52.550;13.408;2022-12-26T11:04:20;12.40;41.30
3037;DHT22;1528;52.550;13.408;2022-12-26T11:07:10;12.30;41.30
3037;DHT22;1528;52.550;13.408;2022-12-26T11:09:57;12.30;41.00
3037;DHT22;1528;52.550;13.408;2022-12-26T11:12:45;12.20;41.10
3037;DHT22;1528;52.550;13.408;2022-12-26T11:15:36;12.20;41.50
3037;DHT22;1528;52.550;13.408;2022-12-26T11:18:31;12.20;41.20
3037;DHT22;1528;52.550;13.408;2022-12-26T11:21:21;12.30;40.80
3037;DHT22;1528;52.550;13.408;2022-12-26T11:24:17;12.20;40.60
3037;DHT22;1528;52.550;13.408;2022-12-26T11:27:16;12.20;40.70
3037;DHT22;1528;52.550;13.408;2022-12-26T11:30:16;12.10;40.80
3037;DHT22;1528;52.550;13.408;2022-12-26T11:33:11;12.20;40.80
3037;DHT22;1528;52.550;13.408;2022-12-26T11:36:07;12.20;40.90
3037;DHT22;1528;52.550;13.408;2022-12-26T11:38:55;12.00;41.10
3037;DHT22;1528;52.550;13.408;2022-12-26T11:41:43;12.00;41.20
3037;DHT22;1528;52.550;13.408;2022-12-26T11:44:34;12.10;41.00
3037;DHT22;1528;52.550;13.408;2022-12-26T11:47:26;12.00;40.90
3037;DHT22;1528;52.550;13.408;2022-12-26T11:50:14;12.20;40.90
3037;DHT22;1528;52.550;13.408;2022-12-26T11:53:05;12.10;40.90
3037;DHT22;1528;52.550;13.408;2022-12-26T11:55:59;12.30;40.80
3037;DHT22;1528;52.550;13.408;2022-12-26T11:58:46;12.40;40.50
3037;DHT22;1528;52.550;13.408;2022-12-26T12:01:31;12.50;40.10
3037;DHT22;1528;52.550;13.408;2022-12-26T12:04:17;12.50;39.70
3037;DHT22;1528;52.550;13.408;2022-12-26T12:07:11;12.30;40.20
3037;DHT22;1528;52.550;13.408;2022-12-26T12:10:04;12.50;40.20
3037;DHT22;1528;52.550;13.408;2022-12-26T12:13:00;12.40;40.50
3037;DHT22;1528;52.550;13.408;2022-12-26T12:15:55;12.30;40.80
3037;DHT22;1528;52.550;13.408;2022-12-26T12:18:48;12.20;41.00
3037;DHT22;1528;52.550;13.408;2022-12-26T12:21:41;12.20;41.50
3037;DHT22;1528;52.550;13.408;2022-12-26T12:24:39;12.10;41.80
3037;DHT22;1528;52.550;13.408;2022-12-26T12:27:30;12.20;42.00
3037;DHT22;1528;52.550;13.408;2022-12-26T12:30:18;12.20;41.80
3037;DHT22;1528;52.550;13.408;2022-12-26T12:33:23;12.40;41.70
3037;DHT22;1528;52.550;13.408;2022-12-26T12:36:14;12.20;41.60
3037;DHT22;1528;52.550;13.408;2022-12-26T12:39:10;12.40;41.70
3037;DHT22;1528;52.550;13.408;2022-12-26T12:42:21;12.40;41.30
3037;DHT22;1528;52.550;13.408;2022-12-26T12:45:22;12.30;41.20
3037;DHT22;1528;52.550;13.408;2022-12-26T12:48:25;12.30;41.70
3037;DHT22;1528;52.550;13.408;2022-12-26T12:51:20;12.40;41.10
3037;DHT22;1528;52.550;13.408;2022-12-26T12:54:43;12.40;40.90
3037;DHT22;1528;52.550;13.408;2022-12-26T12:57:37;12.50;40.60
3037;DHT22;1528;52.550;13.408;2022-12-26T13:00:27;12.50;41.00
3037;DHT22;1528;52.550;13.408;2022-12-26T13:03:24;12.60;40.10
3037;DHT22;1528;52.550;13.408;2022-12-26T13:06:14;12.70;40.90
3037;DHT22;1528;52.550;13.408;2022-12-26T13:09:03;12.60;40.00
3037;DHT22;1528;52.550;13.408;2022-12-26T13:11:54;12.60;39.90
3037;DHT22;1528;52.550;13.408;2022-12-26T13:14:45;12.70;39.80
3037;DHT22;1528;52.550;13.408;2022-12-26T13:17:38;12.80;39.50
3037;DHT22;1528;52.550;13.408;2022-12-26T13:20:32;12.60;39.80
3037;DHT22;1528;52.550;13.408;2022-12-26T13:23:23;12.50;39.80
3037;DHT22;1528;52.550;13.408;2022-12-26T13:26:29;12.60;39.90
3037;DHT22;1528;52.550;13.408;2022-12-26T13:29:19;12.60;39.60
3037;DHT22;1528;52.550;13.408;2022-12-26T13:32:17;12.30;40.10
3037;DHT22;1528;52.550;13.408;2022-12-26T13:35:04;12.40;40.40
3037;DHT22;1528;52.550;13.408;2022-12-26T13:37:56;12.30;40.50
3037;DHT22;1528;52.550;13.408;2022-12-26T13:40:45;12.40;40.20
3037;DHT22;1528;52.550;13.408;2022-12-26T13:43:31;12.50;39.90
3037;DHT22;1528;52.550;13.408;2022-12-26T13:46:51;12.50;39.90
3037;DHT22;1528;52.550;13.408;2022-12-26T13:49:38;12.50;39.40
3037;DHT22;1528;52.550;13.408;2022-12-26T13:52:32;12.30;39.80
3037;DHT22;1528;52.550;13.408;2022-12-26T13:55:39;12.30;39.60
3037;DHT22;1528;52.550;13.408;2022-12-26T13:58:43;12.20;39.80
3037;DHT22;1528;52.550;13.408;2022-12-26T14:01:41;12.10;40.20
3037;DHT22;1528;52.550;13.408;2022-12-26T14:04:39;12.20;40.30
3037;DHT22;1528;52.550;13.408;2022-12-26T14:07:38;12.20;40.00
3037;DHT22;1528;52.550;13.408;2022-12-26T14:10:35;12.30;40.00
3037;DHT22;1528;52.550;13.408;2022-12-26T14:16:40;12.20;40.20
3037;DHT22;1528;52.550;13.408;2022-12-26T14:19:39;12.30;40.00
3037;DHT22;1528;52.550;13.408;2022-12-26T14:22:34;12.30;40.10
3037;DHT22;1528;52.550;13.408;2022-12-26T14:25:24;12.30;40.00
3037;DHT22;1528;52.550;13.408;2022-12-26T14:28:19;12.20;40.30
3037;DHT22;1528;52.550;13.408;2022-12-26T14:31:15;12.20;40.90
3037;DHT22;1528;52.550;13.408;2022-12-26T14:34:15;12.10;40.40
3037;DHT22;1528;52.550;13.408;2022-12-26T14:37:17;12.10;40.40
3037;DHT22;1528;52.550;13.408;2022-12-26T14:40:22;12.10;40.50
3037;DHT22;1528;52.550;13.408;2022-12-26T14:43:25;12.10;40.40
3037;DHT22;1528;52.550;13.408;2022-12-26T14:49:39;11.80;40.80
3037;DHT22;1528;52.550;13.408;2022-12-26T14:52:46;11.80;41.10
3037;DHT22;1528;52.550;13.408;2022-12-26T14:55:46;11.80;40.30
3037;DHT22;1528;52.550;13.408;2022-12-26T14:58:40;11.80;39.90
3037;DHT22;1528;52.550;13.408;2022-12-26T15:01:47;11.90;39.80
3037;DHT22;1528;52.550;13.408;2022-12-26T15:04:55;12.00;39.50
3037;DHT22;1528;52.550;13.408;2022-12-26T15:08:19;12.20;39.10
3037;DHT22;1528;52.550;13.408;2022-12-26T15:11:23;12.00;38.80
3037;DHT22;1528;52.550;13.408;2022-12-26T15:17:39;12.00;38.70
3037;DHT22;1528;52.550;13.408;2022-12-26T15:20:59;12.00;38.80
3037;DHT22;1528;52.550;13.408;2022-12-26T15:27:46;12.10;38.50
3037;DHT22;1528;52.550;13.408;2022-12-26T15:30:56;12.00;39.10
3037;DHT22;1528;52.550;13.408;2022-12-26T15:33:49;12.00;38.70
3037;DHT22;1528;52.550;13.408;2022-12-26T15:36:43;12.00;38.50
3037;DHT22;1528;52.550;13.408;2022-12-26T15:39:37;11.90;39.00
3037;DHT22;1528;52.550;13.408;2022-12-26T15:42:33;11.90;39.10
3037;DHT22;1528;52.550;13.408;2022-12-26T15:45:44;11.90;39.40
3037;DHT22;1528;52.550;13.408;2022-12-26T15:48:42;11.80;39.70
3037;DHT22;1528;52.550;13.408;2022-12-26T15:51:36;11.90;39.60
3037;DHT22;1528;52.550;13.408;2022-12-26T15:54:45;11.90;39.70
3037;DHT22;1528;52.550;13.408;2022-12-26T15:57:43;11.80;39.90
3037;DHT22;1528;52.550;13.408;2022-12-26T16:00:31;11.80;40.20
3037;DHT22;1528;52.550;13.408;2022-12-26T16:03:28;11.80;40.60
3037;DHT22;1528;52.550;13.408;2022-12-26T16:06:27;11.60;41.00
3037;DHT22;1528;52.550;13.408;2022-12-26T16:09:26;11.80;41.00
3037;DHT22;1528;52.550;13.408;2022-12-26T16:12:25;11.70;41.20
3037;DHT22;1528;52.550;13.408;2022-12-26T16:15:15;11.90;41.20
3037;DHT22;1528;52.550;13.408;2022-12-26T16:18:15;11.90;41.70
3037;DHT22;1528;52.550;13.408;2022-12-26T16:21:05;11.90;41.30
3037;DHT22;1528;52.550;13.408;2022-12-26T16:24:10;12.00;41.10
3037;DHT22;1528;52.550;13.408;2022-12-26T16:26:59;12.00;41.50
3037;DHT22;1528;52.550;13.408;2022-12-26T16:29:47;11.90;41.20
3037;DHT22;1528;52.550;13.408;2022-12-26T16:32:35;11.80;41.60
3037;DHT22;1528;52.550;13.408;2022-12-26T16:35:24;11.90;41.30
3037;DHT22;1528;52.550;13.408;2022-12-26T16:38:14;11.90;41.30
3037;DHT22;1528;52.550;13.408;2022-12-26T16:41:02;11.90;41.20
3037;DHT22;1528;52.550;13.408;2022-12-26T16:43:52;12.00;41.10
3037;DHT22;1528;52.550;13.408;2022-12-26T16:46:38;11.90;40.70
3037;DHT22;1528;52.550;13.408;2022-12-26T16:49:24;12.00;40.40
3037;DHT22;1528;52.550;13.408;2022-12-26T16:52:30;12.00;40.20
3037;DHT22;1528;52.550;13.408;2022-12-26T16:55:32;12.00;40.10
3037;DHT22;1528;52.550;13.408;2022-12-26T16:58:25;12.00;40.50
3037;DHT22;1528;52.550;13.408;2022-12-26T17:01:13;11.80;40.80
3037;DHT22;1528;52.550;13.408;2022-12-26T17:04:02;11.70;40.40
3037;DHT22;1528;52.550;13.408;2022-12-26T17:06:51;11.50;40.10
3037;DHT22;1528;52.550;13.408;2022-12-26T17:09:40;11.50;38.80
3037;DHT22;1528;52.550;13.408;2022-12-26T17:12:32;11.30;39.40
3037;DHT22;1528;52.550;13.408;2022-12-26T17:15:20;11.40;39.20
3037;DHT22;1528;52.550;13.408;2022-12-26T17:18:29;11.40;39.90
3037;DHT22;1528;52.550;13.408;2022-12-26T17:21:18;11.40;39.80
3037;DHT22;1528;52.550;13.408;2022-12-26T17:24:18;11.50;39.20
3037;DHT22;1528;52.550;13.408;2022-12-26T17:27:15;11.40;39.30
3037;DHT22;1528;52.550;13.408;2022-12-26T17:30:19;11.40;39.50
3037;DHT22;1528;52.550;13.408;2022-12-26T17:33:09;11.40;39.70
3037;DHT22;1528;52.550;13.408;2022-12-26T17:35:57;11.40;39.00
3037;DHT22;1528;52.550;13.408;2022-12-26T17:38:46;11.30;39.30
3037;DHT22;1528;52.550;13.408;2022-12-26T17:41:31;11.20;38.60
3037;DHT22;1528;52.550;13.408;2022-12-26T17:44:37;11.10;38.80
3037;DHT22;1528;52.550;13.408;2022-12-26T17:47:26;11.20;38.00
3037;DHT22;1528;52.550;13.408;2022-12-26T17:50:12;11.20;37.50
3037;DHT22;1528;52.550;13.408;2022-12-26T17:53:03;11.00;37.40
3037;DHT22;1528;52.550;13.408;2022-12-26T17:55:50;11.10;37.70
3037;DHT22;1528;52.550;13.408;2022-12-26T17:58:36;11.00;37.50
3037;DHT22;1528;52.550;13.408;2022-12-26T18:01:21;11.00;36.90
3037;DHT22;1528;52.550;13.408;2022-12-26T18:04:09;11.00;36.90
3037;DHT22;1528;52.550;13.408;2022-12-26T18:06:54;11.00;37.10
3037;DHT22;1528;52.550;13.408;2022-12-26T18:09:40;10.90;37.10
3037;DHT22;1528;52.550;13.408;2022-12-26T18:12:26;10.90;37.00
3037;DHT22;1528;52.550;13.408;2022-12-26T18:15:11;10.80;36.80
3037;DHT22;1528;52.550;13.408;2022-12-26T18:17:57;10.70;36.80
3037;DHT22;1528;52.550;13.408;2022-12-26T18:20:44;10.70;37.10
3037;DHT22;1528;52.550;13.408;2022-12-26T18:23:30;10.70;36.90
3037;DHT22;1528;52.550;13.408;2022-12-26T18:26:20;10.60;37.00
3037;DHT22;1528;52.550;13.408;2022-12-26T18:29:08;10.50;37.00
3037;DHT22;1528;52.550;13.408;2022-12-26T18:31:54;10.40;36.60
3037;DHT22;1528;52.550;13.408;2022-12-26T18:34:40;10.40;36.90
3037;DHT22;1528;52.550;13.408;2022-12-26T18:37:28;10.30;36.60
3037;DHT22;1528;52.550;13.408;2022-12-26T18:40:26;10.30;36.80
3037;DHT22;1528;52.550;13.408;2022-12-26T18:43:13;10.30;36.70